sensor_id;sensor_type;location;lat;lon;timestamp;P1;durP1;ratioP1;P2;durP2;ratioP2
52838;SDS011;39219;53.678;9.856;2022-07-03T00:01:29;4.18;;;2.97;;
52838;SDS011;39219;53.678;9.856;2022-07-03T00:03:56;5.93;;;3.30;;
52838;SDS011;39219;53.678;9.856;2022-07-03T00:06:24;4.45;;;3.03;;
52838;SDS011;39219;53.678;9.856;2022-07-03T00:08:51;5.30;;;3.30;;
52838;SDS011;39219;53.678;9.856;2022-07-03T00:11:18;7.72;;;3.55;;
52838;SDS011;39219;53.678;9.856;2022-07-03T00:13:44;4.45;;;3.20;;
52838;SDS011;39219;53.678;9.856;2022-07-03T00:16:11;5.88;;;3.30;;
52838;SDS011;39219;53.678;9.856;2022-07-03T00:18:37;3.47;;;3.05;;
52838;SDS011;39219;53.678;9.856;2022-07-03T00:21:04;4.20;;;3.17;;
52838;SDS011;39219;53.678;9.856;2022-07-03T00:23:37;4.68;;;3.35;;
52838;SDS011;39219;53.678;9.856;2022-07-03T00:26:06;5.05;;;3.30;;
52838;SDS011;39219;53.678;9.856;2022-07-03T00:28:33;5.32;;;3.30;;
52838;SDS011;39219;53.678;9.856;2022-07-03T00:31:00;4.55;;;3.28;;
52838;SDS011;39219;53.678;9.856;2022-07-03T00:33:27;5.63;;;3.50;;
52838;SDS011;39219;53.678;9.856;2022-07-03T00:35:58;6.93;;;3.67;;
52838;SDS011;39219;53.678;9.856;2022-07-03T00:38:25;3.67;;;3.10;;
52838;SDS011;39219;53.678;9.856;2022-07-03T00:40:54;5.20;;;3.30;;
52838;SDS011;39219;53.678;9.856;2022-07-03T00:43:20;4.47;;;3.38;;
52838;SDS011;39219;53.678;9.856;2022-07-03T00:45:47;4.35;;;3.10;;
52838;SDS011;39219;53.678;9.856;2022-07-03T00:48:16;5.03;;;3.33;;
52838;SDS011;39219;53.678;9.856;2022-07-03T00:50:44;5.88;;;3.28;;
52838;SDS011;39219;53.678;9.856;2022-07-03T00:53:12;6.65;;;3.40;;
52838;SDS011;39219;53.678;9.856;2022-07-03T00:55:43;4.30;;;3.35;;
52838;SDS011;39219;53.678;9.856;2022-07-03T00:58:14;5.50;;;3.17;;
52838;SDS011;39219;53.678;9.856;2022-07-03T01:00:42;4.70;;;3.22;;
52838;SDS011;39219;53.678;9.856;2022-07-03T01:03:12;4.40;;;3.20;;
52838;SDS011;39219;53.678;9.856;2022-07-03T01:05:42;4.63;;;3.28;;
52838;SDS011;39219;53.678;9.856;2022-07-03T01:08:11;4.35;;;3.10;;
52838;SDS011;39219;53.678;9.856;2022-07-03T01:10:47;3.85;;;3.20;;
52838;SDS011;39219;53.678;9.856;2022-07-03T01:13:22;4.68;;;3.25;;
52838;SDS011;39219;53.678;9.856;2022-07-03T01:15:58;4.95;;;3.20;;
52838;SDS011;39219;53.678;9.856;2022-07-03T01:18:34;5.38;;;3.25;;
52838;SDS011;39219;53.678;9.856;2022-07-03T01:21:06;6.70;;;3.30;;
52838;SDS011;39219;53.678;9.856;2022-07-03T01:23:43;4.05;;;3.00;;
52838;SDS011;39219;53.678;9.856;2022-07-03T01:26:24;5.03;;;3.15;;
52838;SDS011;39219;53.678;9.856;2022-07-03T01:28:53;5.45;;;3.10;;
52838;SDS011;39219;53.678;9.856;2022-07-03T01:31:24;3.55;;;3.00;;
52838;SDS011;39219;53.678;9.856;2022-07-03T01:33:52;5.18;;;3.00;;
52838;SDS011;39219;53.678;9.856;2022-07-03T01:36:20;3.97;;;3.30;;
52838;SDS011;39219;53.678;9.856;2022-07-03T01:38:49;5.45;;;3.25;;
52838;SDS011;39219;53.678;9.856;2022-07-03T01:41:16;3.90;;;3.08;;
52838;SDS011;39219;53.678;9.856;2022-07-03T01:43:46;5.00;;;3.00;;
52838;SDS011;39219;53.678;9.856;2022-07-03T01:46:15;3.17;;;2.83;;
52838;SDS011;39219;53.678;9.856;2022-07-03T01:48:44;3.20;;;2.85;;
52838;SDS011;39219;53.678;9.856;2022-07-03T01:51:12;4.30;;;3.17;;
52838;SDS011;39219;53.678;9.856;2022-07-03T01:53:43;3.05;;;2.83;;
52838;SDS011;39219;53.678;9.856;2022-07-03T01:56:14;3.92;;;3.15;;
52838;SDS011;39219;53.678;9.856;2022-07-03T01:58:41;4.63;;;3.20;;
52838;SDS011;39219;53.678;9.856;2022-07-03T02:01:10;4.70;;;3.00;;
52838;SDS011;39219;53.678;9.856;2022-07-03T02:03:47;5.53;;;2.88;;
52838;SDS011;39219;53.678;9.856;2022-07-03T02:06:26;4.38;;;3.10;;
52838;SDS011;39219;53.678;9.856;2022-07-03T02:09:03;4.40;;;2.83;;
52838;SDS011;39219;53.678;9.856;2022-07-03T02:11:32;3.30;;;2.85;;
52838;SDS011;39219;53.678;9.856;2022-07-03T02:14:03;6.22;;;3.20;;
52838;SDS011;39219;53.678;9.856;2022-07-03T02:16:41;4.00;;;2.92;;
52838;SDS011;39219;53.678;9.856;2022-07-03T02:19:15;4.50;;;3.00;;
52838;SDS011;39219;53.678;9.856;2022-07-03T02:21:45;3.88;;;3.05;;
52838;SDS011;39219;53.678;9.856;2022-07-03T02:24:16;4.00;;;3.10;;
52838;SDS011;39219;53.678;9.856;2022-07-03T02:26:46;4.25;;;2.97;;
52838;SDS011;39219;53.678;9.856;2022-07-03T02:29:20;4.72;;;2.90;;
52838;SDS011;39219;53.678;9.856;2022-07-03T02:31:54;3.72;;;3.10;;
52838;SDS011;39219;53.678;9.856;2022-07-03T02:34:24;4.00;;;3.00;;
52838;SDS011;39219;53.678;9.856;2022-07-03T02:36:55;4.57;;;2.85;;
52838;SDS011;39219;53.678;9.856;2022-07-03T02:39:27;3.38;;;3.08;;
52838;SDS011;39219;53.678;9.856;2022-07-03T02:42:02;3.55;;;2.70;;
52838;SDS011;39219;53.678;9.856;2022-07-03T02:44:31;6.68;;;3.10;;
52838;SDS011;39219;53.678;9.856;2022-07-03T02:47:13;4.43;;;2.97;;
52838;SDS011;39219;53.678;9.856;2022-07-03T02:49:50;3.42;;;2.65;;
52838;SDS011;39219;53.678;9.856;2022-07-03T02:52:27;6.88;;;3.20;;
52838;SDS011;39219;53.678;9.856;2022-07-03T02:54:59;5.72;;;3.10;;
52838;SDS011;39219;53.678;9.856;2022-07-03T02:57:37;4.70;;;3.20;;
52838;SDS011;39219;53.678;9.856;2022-07-03T03:00:06;3.80;;;3.10;;
52838;SDS011;39219;53.678;9.856;2022-07-03T03:02:38;6.45;;;3.15;;
52838;SDS011;39219;53.678;9.856;2022-07-03T03:05:21;4.07;;;3.13;;
52838;SDS011;39219;53.678;9.856;2022-07-03T03:10:21;5.97;;;3.10;;
52838;SDS011;39219;53.678;9.856;2022-07-03T03:12:51;3.80;;;3.13;;
52838;SDS011;39219;53.678;9.856;2022-07-03T03:15:24;6.25;;;3.45;;
52838;SDS011;39219;53.678;9.856;2022-07-03T03:17:59;3.97;;;3.00;;
52838;SDS011;39219;53.678;9.856;2022-07-03T03:20:29;4.50;;;3.22;;
52838;SDS011;39219;53.678;9.856;2022-07-03T03:22:59;4.50;;;3.10;;
52838;SDS011;39219;53.678;9.856;2022-07-03T03:25:36;5.00;;;3.25;;
52838;SDS011;39219;53.678;9.856;2022-07-03T03:28:03;4.05;;;2.90;;
52838;SDS011;39219;53.678;9.856;2022-07-03T03:30:30;4.40;;;2.95;;
52838;SDS011;39219;53.678;9.856;2022-07-03T03:32:58;3.75;;;3.20;;
52838;SDS011;39219;53.678;9.856;2022-07-03T03:35:24;4.20;;;2.92;;
52838;SDS011;39219;53.678;9.856;2022-07-03T03:37:51;3.83;;;3.13;;
52838;SDS011;39219;53.678;9.856;2022-07-03T03:40:17;4.22;;;3.13;;
52838;SDS011;39219;53.678;9.856;2022-07-03T03:42:44;6.07;;;3.13;;
52838;SDS011;39219;53.678;9.856;2022-07-03T03:45:10;3.67;;;3.30;;
52838;SDS011;39219;53.678;9.856;2022-07-03T03:47:37;4.57;;;3.17;;
52838;SDS011;39219;53.678;9.856;2022-07-03T03:50:06;3.45;;;3.15;;
52838;SDS011;39219;53.678;9.856;2022-07-03T03:52:32;6.60;;;3.17;;
52838;SDS011;39219;53.678;9.856;2022-07-03T03:54:59;4.72;;;3.33;;
52838;SDS011;39219;53.678;9.856;2022-07-03T03:57:25;4.70;;;3.38;;
52838;SDS011;39219;53.678;9.856;2022-07-03T03:59:52;4.28;;;3.20;;
52838;SDS011;39219;53.678;9.856;2022-07-03T04:02:21;4.03;;;3.28;;
52838;SDS011;39219;53.678;9.856;2022-07-03T04:04:48;5.50;;;3.35;;
52838;SDS011;39219;53.678;9.856;2022-07-03T04:07:16;3.85;;;3.00;;
52838;SDS011;39219;53.678;9.856;2022-07-03T04:09:42;3.67;;;2.70;;
52838;SDS011;39219;53.678;9.856;2022-07-03T04:12:09;4.20;;;3.28;;
52838;SDS011;39219;53.678;9.856;2022-07-03T04:14:36;3.20;;;2.90;;
52838;SDS011;39219;53.678;9.856;2022-07-03T04:17:03;3.47;;;2.90;;
52838;SDS011;39219;53.678;9.856;2022-07-03T04:19:30;4.68;;;3.10;;
52838;SDS011;39219;53.678;9.856;2022-07-03T04:21:56;6.45;;;3.00;;
52838;SDS011;39219;53.678;9.856;2022-07-03T04:24:25;5.95;;;3.22;;
52838;SDS011;39219;53.678;9.856;2022-07-03T04:26:51;5.20;;;3.00;;
52838;SDS011;39219;53.678;9.856;2022-07-03T04:29:18;3.92;;;3.00;;
52838;SDS011;39219;53.678;9.856;2022-07-03T04:31:44;9.65;;;3.50;;
52838;SDS011;39219;53.678;9.856;2022-07-03T04:34:11;4.55;;;3.10;;
52838;SDS011;39219;53.678;9.856;2022-07-03T04:36:37;3.83;;;2.80;;
52838;SDS011;39219;53.678;9.856;2022-07-03T04:39:04;3.78;;;2.80;;
52838;SDS011;39219;53.678;9.856;2022-07-03T04:41:32;6.35;;;3.00;;
52838;SDS011;39219;53.678;9.856;2022-07-03T04:43:58;7.18;;;2.95;;
52838;SDS011;39219;53.678;9.856;2022-07-03T04:46:25;7.10;;;3.50;;
52838;SDS011;39219;53.678;9.856;2022-07-03T04:48:51;4.50;;;3.10;;
52838;SDS011;39219;53.678;9.856;2022-07-03T04:51:18;5.25;;;3.17;;
52838;SDS011;39219;53.678;9.856;2022-07-03T04:53:44;4.30;;;2.90;;
52838;SDS011;39219;53.678;9.856;2022-07-03T04:56:10;5.13;;;3.30;;
52838;SDS011;39219;53.678;9.856;2022-07-03T04:58:38;4.88;;;3.15;;
52838;SDS011;39219;53.678;9.856;2022-07-03T05:01:05;4.40;;;3.30;;
52838;SDS011;39219;53.678;9.856;2022-07-03T05:03:31;5.30;;;3.20;;
52838;SDS011;39219;53.678;9.856;2022-07-03T05:05:58;5.70;;;3.03;;
52838;SDS011;39219;53.678;9.856;2022-07-03T05:08:24;3.67;;;2.83;;
52838;SDS011;39219;53.678;9.856;2022-07-03T05:10:51;4.25;;;3.08;;
52838;SDS011;39219;53.678;9.856;2022-07-03T05:13:17;4.75;;;2.85;;
52838;SDS011;39219;53.678;9.856;2022-07-03T05:15:45;5.20;;;2.80;;
52838;SDS011;39219;53.678;9.856;2022-07-03T05:18:12;3.42;;;2.50;;
52838;SDS011;39219;53.678;9.856;2022-07-03T05:20:38;5.50;;;2.72;;
52838;SDS011;39219;53.678;9.856;2022-07-03T05:23:05;3.17;;;2.40;;
52838;SDS011;39219;53.678;9.856;2022-07-03T05:25:31;2.83;;;2.38;;
52838;SDS011;39219;53.678;9.856;2022-07-03T05:27:58;5.45;;;2.72;;
52838;SDS011;39219;53.678;9.856;2022-07-03T05:30:26;3.97;;;2.28;;
52838;SDS011;39219;53.678;9.856;2022-07-03T05:32:54;2.50;;;2.30;;
52838;SDS011;39219;53.678;9.856;2022-07-03T05:35:21;3.50;;;2.40;;
52838;SDS011;39219;53.678;9.856;2022-07-03T05:37:48;3.88;;;2.30;;
52838;SDS011;39219;53.678;9.856;2022-07-03T05:40:14;3.28;;;2.30;;
52838;SDS011;39219;53.678;9.856;2022-07-03T05:42:41;3.05;;;2.25;;
52838;SDS011;39219;53.678;9.856;2022-07-03T05:45:08;2.90;;;2.38;;
52838;SDS011;39219;53.678;9.856;2022-07-03T05:47:35;2.88;;;2.40;;
52838;SDS011;39219;53.678;9.856;2022-07-03T05:50:04;5.40;;;2.15;;
52838;SDS011;39219;53.678;9.856;2022-07-03T05:52:31;4.05;;;2.20;;
52838;SDS011;39219;53.678;9.856;2022-07-03T05:54:57;3.20;;;2.25;;
52838;SDS011;39219;53.678;9.856;2022-07-03T05:57:24;2.38;;;2.00;;
52838;SDS011;39219;53.678;9.856;2022-07-03T05:59:50;2.40;;;2.20;;
52838;SDS011;39219;53.678;9.856;2022-07-03T06:02:17;3.03;;;2.40;;
52838;SDS011;39219;53.678;9.856;2022-07-03T06:04:43;4.65;;;2.38;;
52838;SDS011;39219;53.678;9.856;2022-07-03T06:07:11;4.90;;;2.47;;
52838;SDS011;39219;53.678;9.856;2022-07-03T06:09:38;5.88;;;2.67;;
52838;SDS011;39219;53.678;9.856;2022-07-03T06:12:05;4.15;;;2.60;;
52838;SDS011;39219;53.678;9.856;2022-07-03T06:14:31;3.42;;;2.50;;
52838;SDS011;39219;53.678;9.856;2022-07-03T06:16:58;4.10;;;2.28;;
52838;SDS011;39219;53.678;9.856;2022-07-03T06:19:24;6.05;;;2.60;;
52838;SDS011;39219;53.678;9.856;2022-07-03T06:21:51;5.50;;;2.70;;
52838;SDS011;39219;53.678;9.856;2022-07-03T06:24:19;2.70;;;2.50;;
52838;SDS011;39219;53.678;9.856;2022-07-03T06:26:45;5.45;;;2.40;;
52838;SDS011;39219;53.678;9.856;2022-07-03T06:29:12;4.50;;;2.28;;
52838;SDS011;39219;53.678;9.856;2022-07-03T06:31:38;4.45;;;2.58;;
52838;SDS011;39219;53.678;9.856;2022-07-03T06:34:05;2.92;;;2.10;;
52838;SDS011;39219;53.678;9.856;2022-07-03T06:36:31;5.57;;;2.55;;
52838;SDS011;39219;53.678;9.856;2022-07-03T06:38:58;2.97;;;2.47;;
52838;SDS011;39219;53.678;9.856;2022-07-03T06:41:26;2.50;;;2.30;;
52838;SDS011;39219;53.678;9.856;2022-07-03T06:43:52;3.10;;;2.40;;
52838;SDS011;39219;53.678;9.856;2022-07-03T06:46:18;4.00;;;2.58;;
52838;SDS011;39219;53.678;9.856;2022-07-03T06:48:45;4.82;;;2.45;;
52838;SDS011;39219;53.678;9.856;2022-07-03T06:51:11;4.05;;;2.35;;
52838;SDS011;39219;53.678;9.856;2022-07-03T06:53:38;3.45;;;2.30;;
52838;SDS011;39219;53.678;9.856;2022-07-03T06:56:04;4.55;;;2.28;;
52838;SDS011;39219;53.678;9.856;2022-07-03T06:58:32;4.50;;;2.35;;
52838;SDS011;39219;53.678;9.856;2022-07-03T07:00:59;2.67;;;2.13;;
52838;SDS011;39219;53.678;9.856;2022-07-03T07:03:25;5.68;;;2.28;;
52838;SDS011;39219;53.678;9.856;2022-07-03T07:05:52;2.63;;;2.30;;
52838;SDS011;39219;53.678;9.856;2022-07-03T07:08:18;3.42;;;2.13;;
52838;SDS011;39219;53.678;9.856;2022-07-03T07:10:44;6.25;;;2.38;;
52838;SDS011;39219;53.678;9.856;2022-07-03T07:13:11;8.48;;;2.38;;
52838;SDS011;39219;53.678;9.856;2022-07-03T07:15:39;2.88;;;2.10;;
52838;SDS011;39219;53.678;9.856;2022-07-03T07:18:05;4.63;;;2.25;;
52838;SDS011;39219;53.678;9.856;2022-07-03T07:20:32;3.05;;;2.10;;
52838;SDS011;39219;53.678;9.856;2022-07-03T07:22:58;4.28;;;1.90;;
52838;SDS011;39219;53.678;9.856;2022-07-03T07:25:25;4.82;;;2.20;;
52838;SDS011;39219;53.678;9.856;2022-07-03T07:27:51;2.88;;;2.13;;
52838;SDS011;39219;53.678;9.856;2022-07-03T07:30:18;3.75;;;2.33;;
52838;SDS011;39219;53.678;9.856;2022-07-03T07:32:45;2.63;;;2.20;;
52838;SDS011;39219;53.678;9.856;2022-07-03T07:35:12;2.65;;;1.95;;
52838;SDS011;39219;53.678;9.856;2022-07-03T07:37:38;4.13;;;2.10;;
52838;SDS011;39219;53.678;9.856;2022-07-03T07:40:05;3.00;;;1.98;;
52838;SDS011;39219;53.678;9.856;2022-07-03T07:42:33;3.33;;;2.25;;
52838;SDS011;39219;53.678;9.856;2022-07-03T07:44:59;3.22;;;2.20;;
52838;SDS011;39219;53.678;9.856;2022-07-03T07:47:26;2.95;;;2.03;;
52838;SDS011;39219;53.678;9.856;2022-07-03T07:49:54;2.30;;;2.08;;
52838;SDS011;39219;53.678;9.856;2022-07-03T07:52:20;2.47;;;1.85;;
52838;SDS011;39219;53.678;9.856;2022-07-03T07:54:49;3.22;;;1.85;;
52838;SDS011;39219;53.678;9.856;2022-07-03T07:57:15;3.72;;;2.20;;
52838;SDS011;39219;53.678;9.856;2022-07-03T07:59:42;2.60;;;2.20;;
52838;SDS011;39219;53.678;9.856;2022-07-03T08:02:08;2.28;;;2.08;;
52838;SDS011;39219;53.678;9.856;2022-07-03T08:04:53;2.65;;;2.15;;
52838;SDS011;39219;53.678;9.856;2022-07-03T08:07:37;2.15;;;1.95;;
52838;SDS011;39219;53.678;9.856;2022-07-03T08:10:04;3.28;;;2.10;;
52838;SDS011;39219;53.678;9.856;2022-07-03T08:12:30;2.85;;;2.20;;
52838;SDS011;39219;53.678;9.856;2022-07-03T08:14:57;2.00;;;1.80;;
52838;SDS011;39219;53.678;9.856;2022-07-03T08:17:23;2.50;;;2.08;;
52838;SDS011;39219;53.678;9.856;2022-07-03T08:19:50;3.30;;;1.88;;
52838;SDS011;39219;53.678;9.856;2022-07-03T08:22:18;2.30;;;2.10;;
52838;SDS011;39219;53.678;9.856;2022-07-03T08:24:44;2.60;;;2.08;;
52838;SDS011;39219;53.678;9.856;2022-07-03T08:27:11;4.53;;;2.60;;
52838;SDS011;39219;53.678;9.856;2022-07-03T08:29:37;2.55;;;2.13;;
52838;SDS011;39219;53.678;9.856;2022-07-03T08:32:04;4.70;;;2.20;;
52838;SDS011;39219;53.678;9.856;2022-07-03T08:34:32;4.28;;;2.20;;
52838;SDS011;39219;53.678;9.856;2022-07-03T08:36:58;2.75;;;2.05;;
52838;SDS011;39219;53.678;9.856;2022-07-03T08:39:26;2.72;;;2.10;;
52838;SDS011;39219;53.678;9.856;2022-07-03T08:41:53;4.13;;;1.90;;
52838;SDS011;39219;53.678;9.856;2022-07-03T08:44:21;3.35;;;2.17;;
52838;SDS011;39219;53.678;9.856;2022-07-03T08:46:49;3.85;;;2.10;;
52838;SDS011;39219;53.678;9.856;2022-07-03T08:49:17;3.70;;;2.20;;
52838;SDS011;39219;53.678;9.856;2022-07-03T08:51:44;3.38;;;2.00;;
52838;SDS011;39219;53.678;9.856;2022-07-03T08:54:12;4.18;;;2.22;;
52838;SDS011;39219;53.678;9.856;2022-07-03T08:56:40;2.83;;;1.77;;
52838;SDS011;39219;53.678;9.856;2022-07-03T08:59:07;3.35;;;1.95;;
52838;SDS011;39219;53.678;9.856;2022-07-03T09:01:34;2.95;;;2.10;;
52838;SDS011;39219;53.678;9.856;2022-07-03T09:04:06;3.33;;;2.35;;
52838;SDS011;39219;53.678;9.856;2022-07-03T09:06:36;2.97;;;2.00;;
52838;SDS011;39219;53.678;9.856;2022-07-03T09:09:06;4.55;;;2.10;;
52838;SDS011;39219;53.678;9.856;2022-07-03T09:11:33;5.97;;;2.30;;
52838;SDS011;39219;53.678;9.856;2022-07-03T09:14:01;2.38;;;1.80;;
52838;SDS011;39219;53.678;9.856;2022-07-03T09:16:31;3.97;;;2.30;;
52838;SDS011;39219;53.678;9.856;2022-07-03T09:18:58;4.50;;;2.30;;
52838;SDS011;39219;53.678;9.856;2022-07-03T09:21:24;4.55;;;2.42;;
52838;SDS011;39219;53.678;9.856;2022-07-03T09:23:51;5.55;;;2.72;;
52838;SDS011;39219;53.678;9.856;2022-07-03T09:26:17;4.57;;;2.50;;
52838;SDS011;39219;53.678;9.856;2022-07-03T09:28:48;6.88;;;2.85;;
52838;SDS011;39219;53.678;9.856;2022-07-03T09:31:19;2.75;;;2.22;;
52838;SDS011;39219;53.678;9.856;2022-07-03T09:33:51;3.83;;;2.50;;
52838;SDS011;39219;53.678;9.856;2022-07-03T09:36:22;3.85;;;2.15;;
52838;SDS011;39219;53.678;9.856;2022-07-03T09:39:10;3.35;;;2.30;;
52838;SDS011;39219;53.678;9.856;2022-07-03T09:41:49;2.85;;;2.10;;
52838;SDS011;39219;53.678;9.856;2022-07-03T09:44:27;2.55;;;2.20;;
52838;SDS011;39219;53.678;9.856;2022-07-03T09:47:06;4.03;;;2.20;;
52838;SDS011;39219;53.678;9.856;2022-07-03T09:49:43;3.28;;;1.88;;
52838;SDS011;39219;53.678;9.856;2022-07-03T09:52:30;3.63;;;2.03;;
52838;SDS011;39219;53.678;9.856;2022-07-03T09:54:59;3.88;;;1.85;;
52838;SDS011;39219;53.678;9.856;2022-07-03T09:57:28;3.47;;;2.00;;
52838;SDS011;39219;53.678;9.856;2022-07-03T10:00:11;3.40;;;2.00;;
52838;SDS011;39219;53.678;9.856;2022-07-03T10:02:52;2.30;;;1.85;;
52838;SDS011;39219;53.678;9.856;2022-07-03T10:05:20;4.13;;;2.00;;
52838;SDS011;39219;53.678;9.856;2022-07-03T10:07:54;3.75;;;2.00;;
52838;SDS011;39219;53.678;9.856;2022-07-03T10:10:22;2.70;;;2.05;;
52838;SDS011;39219;53.678;9.856;2022-07-03T10:12:51;3.38;;;2.05;;
52838;SDS011;39219;53.678;9.856;2022-07-03T10:15:19;3.60;;;1.80;;
52838;SDS011;39219;53.678;9.856;2022-07-03T10:17:47;2.38;;;1.73;;
52838;SDS011;39219;53.678;9.856;2022-07-03T10:20:19;4.90;;;1.75;;
52838;SDS011;39219;53.678;9.856;2022-07-03T10:22:50;4.20;;;2.00;;
52838;SDS011;39219;53.678;9.856;2022-07-03T10:25:17;2.13;;;1.42;;
52838;SDS011;39219;53.678;9.856;2022-07-03T10:27:44;3.45;;;1.70;;
52838;SDS011;39219;53.678;9.856;2022-07-03T10:30:13;4.90;;;1.83;;
52838;SDS011;39219;53.678;9.856;2022-07-03T10:32:40;4.97;;;1.70;;
52838;SDS011;39219;53.678;9.856;2022-07-03T10:35:10;5.82;;;1.90;;
52838;SDS011;39219;53.678;9.856;2022-07-03T10:37:41;2.90;;;1.58;;
52838;SDS011;39219;53.678;9.856;2022-07-03T10:40:17;4.07;;;1.42;;
52838;SDS011;39219;53.678;9.856;2022-07-03T10:43:13;3.17;;;1.65;;
52838;SDS011;39219;53.678;9.856;2022-07-03T10:46:08;2.53;;;1.42;;
52838;SDS011;39219;53.678;9.856;2022-07-03T10:48:49;1.95;;;1.25;;
52838;SDS011;39219;53.678;9.856;2022-07-03T10:51:17;2.13;;;1.30;;
52838;SDS011;39219;53.678;9.856;2022-07-03T10:53:45;3.50;;;1.60;;
52838;SDS011;39219;53.678;9.856;2022-07-03T10:56:12;3.88;;;1.50;;
52838;SDS011;39219;53.678;9.856;2022-07-03T10:58:54;2.70;;;1.58;;
52838;SDS011;39219;53.678;9.856;2022-07-03T11:01:25;2.40;;;1.40;;
52838;SDS011;39219;53.678;9.856;2022-07-03T11:03:52;3.78;;;1.40;;
52838;SDS011;39219;53.678;9.856;2022-07-03T11:06:20;1.73;;;1.40;;
52838;SDS011;39219;53.678;9.856;2022-07-03T11:09:01;2.95;;;1.50;;
52838;SDS011;39219;53.678;9.856;2022-07-03T11:11:39;1.92;;;1.40;;
52838;SDS011;39219;53.678;9.856;2022-07-03T11:14:22;4.15;;;1.75;;
52838;SDS011;39219;53.678;9.856;2022-07-03T11:16:52;8.27;;;2.30;;
52838;SDS011;39219;53.678;9.856;2022-07-03T11:19:44;6.95;;;2.22;;
52838;SDS011;39219;53.678;9.856;2022-07-03T11:22:32;3.10;;;2.00;;
52838;SDS011;39219;53.678;9.856;2022-07-03T11:25:08;5.93;;;2.47;;
52838;SDS011;39219;53.678;9.856;2022-07-03T11:27:35;3.42;;;2.20;;
52838;SDS011;39219;53.678;9.856;2022-07-03T11:30:02;2.55;;;1.85;;
52838;SDS011;39219;53.678;9.856;2022-07-03T11:32:48;5.40;;;2.22;;
52838;SDS011;39219;53.678;9.856;2022-07-03T11:38:17;3.50;;;1.77;;
52838;SDS011;39219;53.678;9.856;2022-07-03T11:40:48;2.65;;;1.42;;
52838;SDS011;39219;53.678;9.856;2022-07-03T11:43:17;2.90;;;1.77;;
52838;SDS011;39219;53.678;9.856;2022-07-03T11:45:45;4.07;;;1.15;;
52838;SDS011;39219;53.678;9.856;2022-07-03T11:48:13;2.03;;;1.00;;
52838;SDS011;39219;53.678;9.856;2022-07-03T11:50:41;2.03;;;1.05;;
52838;SDS011;39219;53.678;9.856;2022-07-03T11:53:16;2.28;;;1.10;;
52838;SDS011;39219;53.678;9.856;2022-07-03T11:55:48;2.75;;;1.20;;
52838;SDS011;39219;53.678;9.856;2022-07-03T11:58:17;2.10;;;0.90;;
52838;SDS011;39219;53.678;9.856;2022-07-03T12:00:44;2.30;;;0.98;;
52838;SDS011;39219;53.678;9.856;2022-07-03T12:03:14;2.35;;;0.93;;
52838;SDS011;39219;53.678;9.856;2022-07-03T12:05:55;3.28;;;1.10;;
52838;SDS011;39219;53.678;9.856;2022-07-03T12:08:23;2.22;;;1.02;;
52838;SDS011;39219;53.678;9.856;2022-07-03T12:10:57;1.52;;;0.80;;
52838;SDS011;39219;53.678;9.856;2022-07-03T12:13:25;2.08;;;1.05;;
52838;SDS011;39219;53.678;9.856;2022-07-03T12:15:52;2.03;;;1.13;;
52838;SDS011;39219;53.678;9.856;2022-07-03T12:18:19;3.50;;;1.30;;
52838;SDS011;39219;53.678;9.856;2022-07-03T12:20:47;3.17;;;1.33;;
52838;SDS011;39219;53.678;9.856;2022-07-03T12:23:13;1.92;;;1.10;;
52838;SDS011;39219;53.678;9.856;2022-07-03T12:25:40;1.13;;;0.82;;
52838;SDS011;39219;53.678;9.856;2022-07-03T12:28:08;3.05;;;0.98;;
52838;SDS011;39219;53.678;9.856;2022-07-03T12:30:35;2.60;;;1.30;;
52838;SDS011;39219;53.678;9.856;2022-07-03T12:33:03;2.25;;;1.00;;
52838;SDS011;39219;53.678;9.856;2022-07-03T12:35:31;1.98;;;0.90;;
52838;SDS011;39219;53.678;9.856;2022-07-03T12:37:58;4.93;;;1.20;;
52838;SDS011;39219;53.678;9.856;2022-07-03T12:40:24;2.00;;;1.13;;
52838;SDS011;39219;53.678;9.856;2022-07-03T12:42:52;1.90;;;0.93;;
52838;SDS011;39219;53.678;9.856;2022-07-03T12:45:21;1.45;;;0.95;;
52838;SDS011;39219;53.678;9.856;2022-07-03T12:47:59;2.22;;;1.05;;
52838;SDS011;39219;53.678;9.856;2022-07-03T12:53:11;2.22;;;1.17;;
52838;SDS011;39219;53.678;9.856;2022-07-03T12:55:52;1.77;;;1.05;;
52838;SDS011;39219;53.678;9.856;2022-07-03T12:58:22;1.65;;;1.17;;
52838;SDS011;39219;53.678;9.856;2022-07-03T13:03:53;3.22;;;1.25;;
52838;SDS011;39219;53.678;9.856;2022-07-03T13:06:21;1.15;;;0.80;;
52838;SDS011;39219;53.678;9.856;2022-07-03T13:08:48;1.52;;;1.10;;
52838;SDS011;39219;53.678;9.856;2022-07-03T13:11:24;0.90;;;0.90;;
52838;SDS011;39219;53.678;9.856;2022-07-03T13:13:51;1.63;;;0.93;;
52838;SDS011;39219;53.678;9.856;2022-07-03T13:16:23;1.85;;;1.30;;
52838;SDS011;39219;53.678;9.856;2022-07-03T13:18:57;2.47;;;1.23;;
52838;SDS011;39219;53.678;9.856;2022-07-03T13:21:24;1.83;;;0.98;;
52838;SDS011;39219;53.678;9.856;2022-07-03T13:23:50;2.25;;;1.20;;
52838;SDS011;39219;53.678;9.856;2022-07-03T13:26:17;4.45;;;1.10;;
52838;SDS011;39219;53.678;9.856;2022-07-03T13:28:43;1.40;;;1.08;;
52838;SDS011;39219;53.678;9.856;2022-07-03T13:31:10;1.98;;;1.00;;
52838;SDS011;39219;53.678;9.856;2022-07-03T13:33:36;2.08;;;1.00;;
52838;SDS011;39219;53.678;9.856;2022-07-03T13:36:04;1.20;;;1.00;;
52838;SDS011;39219;53.678;9.856;2022-07-03T13:38:31;2.33;;;1.05;;
52838;SDS011;39219;53.678;9.856;2022-07-03T13:40:57;3.35;;;1.00;;
52838;SDS011;39219;53.678;9.856;2022-07-03T13:43:24;2.25;;;1.02;;
52838;SDS011;39219;53.678;9.856;2022-07-03T13:45:50;1.83;;;0.93;;
52838;SDS011;39219;53.678;9.856;2022-07-03T13:48:17;1.70;;;0.88;;
52838;SDS011;39219;53.678;9.856;2022-07-03T13:50:43;1.25;;;0.90;;
52838;SDS011;39219;53.678;9.856;2022-07-03T13:53:12;1.75;;;0.90;;
52838;SDS011;39219;53.678;9.856;2022-07-03T13:55:39;1.02;;;0.93;;
52838;SDS011;39219;53.678;9.856;2022-07-03T13:58:06;1.40;;;0.85;;
52838;SDS011;39219;53.678;9.856;2022-07-03T14:00:33;2.53;;;1.02;;
52838;SDS011;39219;53.678;9.856;2022-07-03T14:02:59;1.00;;;0.90;;
52838;SDS011;39219;53.678;9.856;2022-07-03T14:05:26;1.23;;;1.00;;
52838;SDS011;39219;53.678;9.856;2022-07-03T14:07:53;1.52;;;1.00;;
52838;SDS011;39219;53.678;9.856;2022-07-03T14:10:21;1.48;;;0.85;;
52838;SDS011;39219;53.678;9.856;2022-07-03T14:12:50;2.10;;;0.80;;
52838;SDS011;39219;53.678;9.856;2022-07-03T14:15:16;2.53;;;1.00;;
52838;SDS011;39219;53.678;9.856;2022-07-03T14:17:43;1.55;;;0.90;;
52838;SDS011;39219;53.678;9.856;2022-07-03T14:20:10;3.40;;;1.00;;
52838;SDS011;39219;53.678;9.856;2022-07-03T14:22:38;7.45;;;1.20;;
52838;SDS011;39219;53.678;9.856;2022-07-03T14:25:05;1.80;;;0.98;;
52838;SDS011;39219;53.678;9.856;2022-07-03T14:27:34;4.57;;;1.20;;
52838;SDS011;39219;53.678;9.856;2022-07-03T14:30:18;2.08;;;1.00;;
52838;SDS011;39219;53.678;9.856;2022-07-03T14:33:02;3.50;;;1.02;;
52838;SDS011;39219;53.678;9.856;2022-07-03T14:35:29;9.30;;;1.52;;
52838;SDS011;39219;53.678;9.856;2022-07-03T14:37:55;10.98;;;1.58;;
52838;SDS011;39219;53.678;9.856;2022-07-03T14:40:22;3.50;;;1.05;;
52838;SDS011;39219;53.678;9.856;2022-07-03T14:42:50;1.88;;;0.90;;
52838;SDS011;39219;53.678;9.856;2022-07-03T14:45:17;1.80;;;0.90;;
52838;SDS011;39219;53.678;9.856;2022-07-03T14:47:43;1.85;;;1.00;;
52838;SDS011;39219;53.678;9.856;2022-07-03T14:50:10;1.20;;;1.10;;
52838;SDS011;39219;53.678;9.856;2022-07-03T14:52:36;1.02;;;0.93;;
52838;SDS011;39219;53.678;9.856;2022-07-03T14:55:03;2.50;;;1.05;;
52838;SDS011;39219;53.678;9.856;2022-07-03T14:57:31;1.00;;;0.90;;
52838;SDS011;39219;53.678;9.856;2022-07-03T15:00:08;2.13;;;1.00;;
52838;SDS011;39219;53.678;9.856;2022-07-03T15:02:42;1.95;;;1.13;;
52838;SDS011;39219;53.678;9.856;2022-07-03T15:05:11;1.15;;;0.90;;
52838;SDS011;39219;53.678;9.856;2022-07-03T15:07:39;1.77;;;1.20;;
52838;SDS011;39219;53.678;9.856;2022-07-03T15:10:07;1.25;;;1.00;;
52838;SDS011;39219;53.678;9.856;2022-07-03T15:12:40;1.38;;;1.00;;